sensor_id;sensor_type;location;lat;lon;timestamp;P1;durP1;ratioP1;P2;durP2;ratioP2
29662;SDS011;16578;53.266;7.920;2023-09-19T00:01:05;3.80;;;1.57;;
29662;SDS011;16578;53.266;7.920;2023-09-19T00:03:33;5.30;;;1.85;;
29662;SDS011;16578;53.266;7.920;2023-09-19T00:06:00;4.43;;;2.10;;
29662;SDS011;16578;53.266;7.920;2023-09-19T00:08:26;5.03;;;1.77;;
29662;SDS011;16578;53.266;7.920;2023-09-19T00:10:52;4.90;;;2.10;;
29662;SDS011;16578;53.266;7.920;2023-09-19T00:13:19;3.70;;;1.55;;
29662;SDS011;16578;53.266;7.920;2023-09-19T00:15:46;3.83;;;2.03;;
29662;SDS011;16578;53.266;7.920;2023-09-19T00:18:15;3.42;;;1.80;;
29662;SDS011;16578;53.266;7.920;2023-09-19T00:20:43;4.63;;;2.25;;
29662;SDS011;16578;53.266;7.920;2023-09-19T00:23:12;3.53;;;1.70;;
29662;SDS011;16578;53.266;7.920;2023-09-19T00:25:38;5.65;;;1.88;;
29662;SDS011;16578;53.266;7.920;2023-09-19T00:28:05;3.20;;;1.98;;
29662;SDS011;16578;53.266;7.920;2023-09-19T00:30:32;5.93;;;2.15;;
29662;SDS011;16578;53.266;7.920;2023-09-19T00:32:58;3.78;;;1.90;;
29662;SDS011;16578;53.266;7.920;2023-09-19T00:35:24;4.10;;;2.20;;
29662;SDS011;16578;53.266;7.920;2023-09-19T00:37:49;3.80;;;1.70;;
29662;SDS011;16578;53.266;7.920;2023-09-19T00:40:16;5.40;;;2.17;;
29662;SDS011;16578;53.266;7.920;2023-09-19T00:42:45;7.45;;;2.30;;
29662;SDS011;16578;53.266;7.920;2023-09-19T00:45:12;4.43;;;2.03;;
29662;SDS011;16578;53.266;7.920;2023-09-19T00:47:39;4.80;;;2.13;;
29662;SDS011;16578;53.266;7.920;2023-09-19T00:50:07;5.37;;;1.90;;
29662;SDS011;16578;53.266;7.920;2023-09-19T00:52:34;3.40;;;1.90;;
29662;SDS011;16578;53.266;7.920;2023-09-19T00:55:05;5.13;;;1.70;;
29662;SDS011;16578;53.266;7.920;2023-09-19T00:57:32;4.47;;;1.95;;
29662;SDS011;16578;53.266;7.920;2023-09-19T00:59:59;3.80;;;1.95;;
29662;SDS011;16578;53.266;7.920;2023-09-19T01:02:30;3.30;;;1.88;;
29662;SDS011;16578;53.266;7.920;2023-09-19T01:04:56;4.25;;;2.13;;
29662;SDS011;16578;53.266;7.920;2023-09-19T01:07:23;4.68;;;1.70;;
29662;SDS011;16578;53.266;7.920;2023-09-19T01:09:48;4.35;;;1.80;;
29662;SDS011;16578;53.266;7.920;2023-09-19T01:12:15;4.38;;;2.08;;
29662;SDS011;16578;53.266;7.920;2023-09-19T01:14:53;3.75;;;1.50;;
29662;SDS011;16578;53.266;7.920;2023-09-19T01:17:44;4.40;;;1.80;;
29662;SDS011;16578;53.266;7.920;2023-09-19T01:31:06;4.15;;;1.85;;
29662;SDS011;16578;53.266;7.920;2023-09-19T01:36:29;5.13;;;1.75;;
29662;SDS011;16578;53.266;7.920;2023-09-19T01:38:59;4.60;;;1.73;;
29662;SDS011;16578;53.266;7.920;2023-09-19T01:41:56;3.53;;;1.50;;
29662;SDS011;16578;53.266;7.920;2023-09-19T01:44:29;4.28;;;1.63;;
29662;SDS011;16578;53.266;7.920;2023-09-19T01:47:08;5.50;;;2.03;;
29662;SDS011;16578;53.266;7.920;2023-09-19T01:49:46;4.55;;;1.88;;
29662;SDS011;16578;53.266;7.920;2023-09-19T01:52:22;5.18;;;2.05;;
29662;SDS011;16578;53.266;7.920;2023-09-19T01:54:50;4.00;;;1.83;;
29662;SDS011;16578;53.266;7.920;2023-09-19T01:57:20;3.30;;;1.73;;
29662;SDS011;16578;53.266;7.920;2023-09-19T02:00:03;3.63;;;2.03;;
29662;SDS011;16578;53.266;7.920;2023-09-19T02:02:34;3.38;;;1.58;;
29662;SDS011;16578;53.266;7.920;2023-09-19T02:05:03;5.80;;;2.08;;
29662;SDS011;16578;53.266;7.920;2023-09-19T02:07:29;4.18;;;2.00;;
29662;SDS011;16578;53.266;7.920;2023-09-19T02:09:57;5.43;;;2.25;;
29662;SDS011;16578;53.266;7.920;2023-09-19T02:12:26;5.47;;;1.95;;
29662;SDS011;16578;53.266;7.920;2023-09-19T02:14:52;5.40;;;2.20;;
29662;SDS011;16578;53.266;7.920;2023-09-19T02:17:17;5.28;;;2.17;;
29662;SDS011;16578;53.266;7.920;2023-09-19T02:19:44;4.22;;;1.77;;
29662;SDS011;16578;53.266;7.920;2023-09-19T02:22:10;5.88;;;2.33;;
29662;SDS011;16578;53.266;7.920;2023-09-19T02:24:36;4.35;;;2.05;;
29662;SDS011;16578;53.266;7.920;2023-09-19T02:27:03;4.60;;;2.08;;
29662;SDS011;16578;53.266;7.920;2023-09-19T02:29:31;5.38;;;2.17;;
29662;SDS011;16578;53.266;7.920;2023-09-19T02:31:57;6.13;;;1.98;;
29662;SDS011;16578;53.266;7.920;2023-09-19T02:34:23;4.85;;;1.80;;
29662;SDS011;16578;53.266;7.920;2023-09-19T02:36:50;4.60;;;1.90;;
29662;SDS011;16578;53.266;7.920;2023-09-19T02:39:17;4.55;;;2.00;;
29662;SDS011;16578;53.266;7.920;2023-09-19T02:41:43;5.25;;;2.03;;
29662;SDS011;16578;53.266;7.920;2023-09-19T02:44:08;6.28;;;2.42;;
29662;SDS011;16578;53.266;7.920;2023-09-19T02:46:34;5.10;;;2.08;;
29662;SDS011;16578;53.266;7.920;2023-09-19T02:49:01;5.03;;;1.90;;
29662;SDS011;16578;53.266;7.920;2023-09-19T02:51:30;5.38;;;2.05;;
29662;SDS011;16578;53.266;7.920;2023-09-19T02:53:56;5.80;;;2.15;;
29662;SDS011;16578;53.266;7.920;2023-09-19T02:56:21;4.60;;;2.08;;
29662;SDS011;16578;53.266;7.920;2023-09-19T02:58:47;6.65;;;2.25;;
29662;SDS011;16578;53.266;7.920;2023-09-19T03:01:13;7.78;;;2.08;;
29662;SDS011;16578;53.266;7.920;2023-09-19T03:03:39;5.05;;;1.95;;
29662;SDS011;16578;53.266;7.920;2023-09-19T03:06:06;4.22;;;1.92;;
29662;SDS011;16578;53.266;7.920;2023-09-19T03:08:34;5.65;;;1.48;;
29662;SDS011;16578;53.266;7.920;2023-09-19T03:11:02;4.60;;;1.48;;
29662;SDS011;16578;53.266;7.920;2023-09-19T03:13:28;4.43;;;2.13;;
29662;SDS011;16578;53.266;7.920;2023-09-19T03:15:56;6.00;;;1.98;;
29662;SDS011;16578;53.266;7.920;2023-09-19T03:18:23;6.78;;;2.28;;
29662;SDS011;16578;53.266;7.920;2023-09-19T03:20:54;4.63;;;1.90;;
29662;SDS011;16578;53.266;7.920;2023-09-19T03:23:20;5.80;;;2.22;;
29662;SDS011;16578;53.266;7.920;2023-09-19T03:25:45;4.60;;;2.17;;
29662;SDS011;16578;53.266;7.920;2023-09-19T03:28:12;5.93;;;2.42;;
29662;SDS011;16578;53.266;7.920;2023-09-19T03:30:38;5.32;;;2.33;;
29662;SDS011;16578;53.266;7.920;2023-09-19T03:33:04;5.05;;;2.38;;
29662;SDS011;16578;53.266;7.920;2023-09-19T03:35:31;4.43;;;2.22;;
29662;SDS011;16578;53.266;7.920;2023-09-19T03:37:56;4.07;;;1.95;;
29662;SDS011;16578;53.266;7.920;2023-09-19T03:40:22;4.97;;;2.13;;
29662;SDS011;16578;53.266;7.920;2023-09-19T03:42:48;5.47;;;2.30;;
29662;SDS011;16578;53.266;7.920;2023-09-19T03:45:14;6.18;;;2.28;;
29662;SDS011;16578;53.266;7.920;2023-09-19T03:47:41;8.40;;;2.75;;
29662;SDS011;16578;53.266;7.920;2023-09-19T03:50:07;5.22;;;2.63;;
29662;SDS011;16578;53.266;7.920;2023-09-19T03:52:43;4.25;;;1.90;;
29662;SDS011;16578;53.266;7.920;2023-09-19T03:55:09;3.60;;;1.52;;
29662;SDS011;16578;53.266;7.920;2023-09-19T03:57:35;4.50;;;2.08;;
29662;SDS011;16578;53.266;7.920;2023-09-19T04:00:02;3.05;;;1.42;;
29662;SDS011;16578;53.266;7.920;2023-09-19T04:04:58;4.95;;;1.80;;
29662;SDS011;16578;53.266;7.920;2023-09-19T04:07:23;4.22;;;1.70;;
29662;SDS011;16578;53.266;7.920;2023-09-19T04:09:51;3.92;;;1.50;;
29662;SDS011;16578;53.266;7.920;2023-09-19T04:12:18;3.92;;;1.50;;
29662;SDS011;16578;53.266;7.920;2023-09-19T04:14:44;12.63;;;2.10;;
29662;SDS011;16578;53.266;7.920;2023-09-19T04:17:10;2.63;;;1.60;;
29662;SDS011;16578;53.266;7.920;2023-09-19T04:19:36;4.50;;;2.00;;
29662;SDS011;16578;53.266;7.920;2023-09-19T04:22:01;4.63;;;1.58;;
29662;SDS011;16578;53.266;7.920;2023-09-19T04:24:28;6.25;;;1.55;;
29662;SDS011;16578;53.266;7.920;2023-09-19T04:26:54;5.07;;;1.75;;
29662;SDS011;16578;53.266;7.920;2023-09-19T04:29:19;9.82;;;1.92;;
29662;SDS011;16578;53.266;7.920;2023-09-19T04:31:45;5.68;;;2.45;;
29662;SDS011;16578;53.266;7.920;2023-09-19T04:34:11;3.20;;;1.33;;
29662;SDS011;16578;53.266;7.920;2023-09-19T04:36:42;3.92;;;1.60;;
29662;SDS011;16578;53.266;7.920;2023-09-19T04:39:08;3.88;;;1.73;;
29662;SDS011;16578;53.266;7.920;2023-09-19T04:41:36;7.03;;;1.83;;
29662;SDS011;16578;53.266;7.920;2023-09-19T04:44:06;5.13;;;1.90;;
29662;SDS011;16578;53.266;7.920;2023-09-19T04:46:32;3.80;;;1.40;;
29662;SDS011;16578;53.266;7.920;2023-09-19T04:48:58;5.72;;;1.95;;
29662;SDS011;16578;53.266;7.920;2023-09-19T04:51:24;6.90;;;1.63;;
29662;SDS011;16578;53.266;7.920;2023-09-19T04:53:51;3.80;;;1.52;;
29662;SDS011;16578;53.266;7.920;2023-09-19T04:56:17;4.22;;;2.03;;
29662;SDS011;16578;53.266;7.920;2023-09-19T04:58:43;6.85;;;1.55;;
29662;SDS011;16578;53.266;7.920;2023-09-19T05:01:09;6.40;;;1.95;;
29662;SDS011;16578;53.266;7.920;2023-09-19T05:03:37;5.33;;;1.53;;
29662;SDS011;16578;53.266;7.920;2023-09-19T05:06:03;4.90;;;1.70;;
29662;SDS011;16578;53.266;7.920;2023-09-19T05:08:30;8.63;;;2.17;;
29662;SDS011;16578;53.266;7.920;2023-09-19T05:10:55;2.70;;;1.48;;
29662;SDS011;16578;53.266;7.920;2023-09-19T05:13:21;6.13;;;1.80;;
29662;SDS011;16578;53.266;7.920;2023-09-19T05:15:48;8.75;;;1.95;;
29662;SDS011;16578;53.266;7.920;2023-09-19T05:18:15;5.22;;;1.90;;
29662;SDS011;16578;53.266;7.920;2023-09-19T05:20:40;5.53;;;1.85;;
29662;SDS011;16578;53.266;7.920;2023-09-19T05:23:07;5.03;;;1.90;;
29662;SDS011;16578;53.266;7.920;2023-09-19T05:25:34;5.22;;;1.50;;
29662;SDS011;16578;53.266;7.920;2023-09-19T05:28:04;5.57;;;1.77;;
29662;SDS011;16578;53.266;7.920;2023-09-19T05:30:31;7.38;;;2.15;;
29662;SDS011;16578;53.266;7.920;2023-09-19T05:32:57;6.40;;;1.58;;
29662;SDS011;16578;53.266;7.920;2023-09-19T05:35:23;6.88;;;1.90;;
29662;SDS011;16578;53.266;7.920;2023-09-19T05:37:52;3.53;;;1.85;;
29662;SDS011;16578;53.266;7.920;2023-09-19T05:40:19;6.78;;;1.88;;
29662;SDS011;16578;53.266;7.920;2023-09-19T05:42:45;3.88;;;1.80;;
29662;SDS011;16578;53.266;7.920;2023-09-19T05:45:12;4.05;;;1.73;;
29662;SDS011;16578;53.266;7.920;2023-09-19T05:47:41;2.78;;;1.48;;
29662;SDS011;16578;53.266;7.920;2023-09-19T05:50:10;3.72;;;1.67;;
29662;SDS011;16578;53.266;7.920;2023-09-19T05:52:36;2.88;;;1.55;;
29662;SDS011;16578;53.266;7.920;2023-09-19T05:55:05;5.97;;;1.83;;
29662;SDS011;16578;53.266;7.920;2023-09-19T05:57:32;4.22;;;1.70;;
29662;SDS011;16578;53.266;7.920;2023-09-19T05:59:58;7.60;;;2.05;;
29662;SDS011;16578;53.266;7.920;2023-09-19T06:02:24;5.82;;;1.65;;
29662;SDS011;16578;53.266;7.920;2023-09-19T06:04:53;6.15;;;1.88;;
29662;SDS011;16578;53.266;7.920;2023-09-19T06:07:20;3.00;;;1.83;;
29662;SDS011;16578;53.266;7.920;2023-09-19T06:09:47;4.25;;;1.67;;
29662;SDS011;16578;53.266;7.920;2023-09-19T06:12:12;11.80;;;2.50;;
29662;SDS011;16578;53.266;7.920;2023-09-19T06:14:42;6.70;;;2.28;;
29662;SDS011;16578;53.266;7.920;2023-09-19T06:17:08;4.70;;;1.98;;
29662;SDS011;16578;53.266;7.920;2023-09-19T06:19:34;4.00;;;1.77;;
29662;SDS011;16578;53.266;7.920;2023-09-19T06:21:59;9.45;;;2.28;;
29662;SDS011;16578;53.266;7.920;2023-09-19T06:24:25;5.45;;;1.95;;
29662;SDS011;16578;53.266;7.920;2023-09-19T06:26:51;8.15;;;1.50;;
29662;SDS011;16578;53.266;7.920;2023-09-19T06:29:18;5.75;;;1.98;;
29662;SDS011;16578;53.266;7.920;2023-09-19T06:31:45;5.57;;;1.93;;
29662;SDS011;16578;53.266;7.920;2023-09-19T06:34:12;6.22;;;2.08;;
29662;SDS011;16578;53.266;7.920;2023-09-19T06:36:39;6.30;;;2.05;;
29662;SDS011;16578;53.266;7.920;2023-09-19T06:39:05;7.82;;;2.08;;
29662;SDS011;16578;53.266;7.920;2023-09-19T06:41:31;6.47;;;2.00;;
29662;SDS011;16578;53.266;7.920;2023-09-19T06:43:57;6.72;;;2.08;;
29662;SDS011;16578;53.266;7.920;2023-09-19T06:46:23;14.95;;;2.28;;
29662;SDS011;16578;53.266;7.920;2023-09-19T06:48:49;6.30;;;2.50;;
29662;SDS011;16578;53.266;7.920;2023-09-19T06:51:17;9.20;;;2.28;;
29662;SDS011;16578;53.266;7.920;2023-09-19T06:53:43;11.00;;;2.67;;
29662;SDS011;16578;53.266;7.920;2023-09-19T06:56:09;5.15;;;1.80;;
29662;SDS011;16578;53.266;7.920;2023-09-19T06:58:35;8.77;;;1.95;;
29662;SDS011;16578;53.266;7.920;2023-09-19T07:01:01;6.32;;;1.88;;
29662;SDS011;16578;53.266;7.920;2023-09-19T07:03:28;7.55;;;2.85;;
29662;SDS011;16578;53.266;7.920;2023-09-19T07:05:53;8.45;;;2.30;;
29662;SDS011;16578;53.266;7.920;2023-09-19T07:08:21;11.88;;;2.67;;
29662;SDS011;16578;53.266;7.920;2023-09-19T07:10:46;5.30;;;2.17;;
29662;SDS011;16578;53.266;7.920;2023-09-19T07:13:19;8.35;;;2.13;;
29662;SDS011;16578;53.266;7.920;2023-09-19T07:15:44;7.50;;;2.13;;
29662;SDS011;16578;53.266;7.920;2023-09-19T07:18:15;5.00;;;1.88;;
29662;SDS011;16578;53.266;7.920;2023-09-19T07:20:42;6.18;;;2.45;;
29662;SDS011;16578;53.266;7.920;2023-09-19T07:23:17;5.60;;;1.83;;
29662;SDS011;16578;53.266;7.920;2023-09-19T07:25:44;8.25;;;2.22;;
29662;SDS011;16578;53.266;7.920;2023-09-19T07:28:11;7.15;;;2.60;;
29662;SDS011;16578;53.266;7.920;2023-09-19T07:30:37;8.35;;;2.15;;
29662;SDS011;16578;53.266;7.920;2023-09-19T07:33:04;7.68;;;1.90;;
29662;SDS011;16578;53.266;7.920;2023-09-19T07:35:30;5.97;;;2.38;;
29662;SDS011;16578;53.266;7.920;2023-09-19T07:37:56;4.85;;;2.25;;
29662;SDS011;16578;53.266;7.920;2023-09-19T07:40:23;10.48;;;2.78;;
29662;SDS011;16578;53.266;7.920;2023-09-19T07:42:51;8.25;;;2.35;;
29662;SDS011;16578;53.266;7.920;2023-09-19T07:45:17;8.27;;;2.75;;
29662;SDS011;16578;53.266;7.920;2023-09-19T07:47:49;6.45;;;2.20;;
29662;SDS011;16578;53.266;7.920;2023-09-19T07:50:16;5.70;;;2.60;;
29662;SDS011;16578;53.266;7.920;2023-09-19T07:52:44;7.65;;;2.35;;
29662;SDS011;16578;53.266;7.920;2023-09-19T07:55:10;9.55;;;2.67;;
29662;SDS011;16578;53.266;7.920;2023-09-19T07:57:36;13.52;;;2.65;;
29662;SDS011;16578;53.266;7.920;2023-09-19T08:00:02;9.93;;;2.20;;
29662;SDS011;16578;53.266;7.920;2023-09-19T08:02:39;6.30;;;2.40;;
29662;SDS011;16578;53.266;7.920;2023-09-19T08:05:11;6.70;;;1.90;;
29662;SDS011;16578;53.266;7.920;2023-09-19T08:07:41;6.78;;;2.28;;
29662;SDS011;16578;53.266;7.920;2023-09-19T08:10:07;7.90;;;2.40;;
29662;SDS011;16578;53.266;7.920;2023-09-19T08:12:38;9.05;;;2.08;;
29662;SDS011;16578;53.266;7.920;2023-09-19T08:15:11;6.90;;;2.13;;
29662;SDS011;16578;53.266;7.920;2023-09-19T08:17:44;7.10;;;2.22;;
29662;SDS011;16578;53.266;7.920;2023-09-19T08:20:10;5.63;;;1.92;;
29662;SDS011;16578;53.266;7.920;2023-09-19T08:22:51;5.97;;;1.90;;
29662;SDS011;16578;53.266;7.920;2023-09-19T08:25:19;6.72;;;2.58;;
29662;SDS011;16578;53.266;7.920;2023-09-19T08:27:50;8.20;;;2.78;;
29662;SDS011;16578;53.266;7.920;2023-09-19T08:30:16;9.20;;;2.80;;
29662;SDS011;16578;53.266;7.920;2023-09-19T08:32:43;7.53;;;2.65;;
29662;SDS011;16578;53.266;7.920;2023-09-19T08:35:10;5.40;;;2.20;;
29662;SDS011;16578;53.266;7.920;2023-09-19T08:37:35;11.50;;;2.38;;
29662;SDS011;16578;53.266;7.920;2023-09-19T08:40:01;8.93;;;3.13;;
29662;SDS011;16578;53.266;7.920;2023-09-19T08:42:27;10.80;;;3.20;;
29662;SDS011;16578;53.266;7.920;2023-09-19T08:44:54;8.60;;;2.30;;
29662;SDS011;16578;53.266;7.920;2023-09-19T08:47:25;6.57;;;1.95;;
29662;SDS011;16578;53.266;7.920;2023-09-19T08:52:44;6.75;;;2.78;;
29662;SDS011;16578;53.266;7.920;2023-09-19T08:55:12;11.35;;;2.47;;
29662;SDS011;16578;53.266;7.920;2023-09-19T08:57:45;8.27;;;1.95;;
29662;SDS011;16578;53.266;7.920;2023-09-19T09:05:08;6.10;;;2.00;;
29662;SDS011;16578;53.266;7.920;2023-09-19T09:07:36;6.43;;;2.40;;
29662;SDS011;16578;53.266;7.920;2023-09-19T09:10:03;9.82;;;2.90;;
29662;SDS011;16578;53.266;7.920;2023-09-19T09:12:29;8.70;;;2.00;;
29662;SDS011;16578;53.266;7.920;2023-09-19T09:14:55;8.13;;;1.92;;
29662;SDS011;16578;53.266;7.920;2023-09-19T09:17:22;7.50;;;2.38;;
29662;SDS011;16578;53.266;7.920;2023-09-19T09:19:48;9.15;;;2.42;;
29662;SDS011;16578;53.266;7.920;2023-09-19T09:22:14;7.05;;;2.20;;
29662;SDS011;16578;53.266;7.920;2023-09-19T09:24:54;8.35;;;2.72;;
29662;SDS011;16578;53.266;7.920;2023-09-19T09:27:23;6.80;;;2.03;;
29662;SDS011;16578;53.266;7.920;2023-09-19T09:29:50;6.00;;;2.20;;
29662;SDS011;16578;53.266;7.920;2023-09-19T09:32:20;6.15;;;2.08;;
29662;SDS011;16578;53.266;7.920;2023-09-19T09:34:56;10.52;;;2.83;;
29662;SDS011;16578;53.266;7.920;2023-09-19T09:37:23;6.05;;;2.20;;
29662;SDS011;16578;53.266;7.920;2023-09-19T09:39:50;6.45;;;2.55;;
29662;SDS011;16578;53.266;7.920;2023-09-19T09:42:28;7.47;;;2.45;;
29662;SDS011;16578;53.266;7.920;2023-09-19T09:47:46;6.40;;;2.58;;
29662;SDS011;16578;53.266;7.920;2023-09-19T09:50:25;7.40;;;2.72;;
29662;SDS011;16578;53.266;7.920;2023-09-19T09:53:22;7.68;;;2.72;;
29662;SDS011;16578;53.266;7.920;2023-09-19T09:58:31;6.72;;;2.60;;
29662;SDS011;16578;53.266;7.920;2023-09-19T10:01:14;5.53;;;2.45;;
29662;SDS011;16578;53.266;7.920;2023-09-19T10:03:43;8.80;;;2.92;;
29662;SDS011;16578;53.266;7.920;2023-09-19T10:06:10;6.88;;;2.60;;
29662;SDS011;16578;53.266;7.920;2023-09-19T10:09:04;11.50;;;3.03;;
29662;SDS011;16578;53.266;7.920;2023-09-19T10:11:46;8.52;;;2.63;;
29662;SDS011;16578;53.266;7.920;2023-09-19T10:14:19;6.75;;;1.98;;
29662;SDS011;16578;53.266;7.920;2023-09-19T10:16:49;6.22;;;2.13;;
29662;SDS011;16578;53.266;7.920;2023-09-19T10:19:22;8.45;;;2.95;;
29662;SDS011;16578;53.266;7.920;2023-09-19T10:21:55;12.30;;;2.95;;
29662;SDS011;16578;53.266;7.920;2023-09-19T10:24:22;10.60;;;2.60;;
29662;SDS011;16578;53.266;7.920;2023-09-19T10:26:50;9.00;;;2.90;;
29662;SDS011;16578;53.266;7.920;2023-09-19T10:29:16;5.90;;;2.20;;
29662;SDS011;16578;53.266;7.920;2023-09-19T10:31:43;8.32;;;3.05;;
29662;SDS011;16578;53.266;7.920;2023-09-19T10:34:13;13.25;;;3.67;;
29662;SDS011;16578;53.266;7.920;2023-09-19T10:36:40;9.98;;;2.95;;
29662;SDS011;16578;53.266;7.920;2023-09-19T10:39:14;8.93;;;2.95;;
29662;SDS011;16578;53.266;7.920;2023-09-19T10:41:49;9.45;;;2.65;;
29662;SDS011;16578;53.266;7.920;2023-09-19T10:44:21;8.73;;;2.92;;
29662;SDS011;16578;53.266;7.920;2023-09-19T10:46:51;6.60;;;2.70;;
29662;SDS011;16578;53.266;7.920;2023-09-19T10:49:18;6.95;;;3.10;;
29662;SDS011;16578;53.266;7.920;2023-09-19T10:51:47;9.25;;;3.08;;
29662;SDS011;16578;53.266;7.920;2023-09-19T10:54:19;6.53;;;2.88;;
29662;SDS011;16578;53.266;7.920;2023-09-19T10:56:51;9.02;;;3.25;;
29662;SDS011;16578;53.266;7.920;2023-09-19T10:59:18;7.15;;;2.45;;
29662;SDS011;16578;53.266;7.920;2023-09-19T11:01:49;8.68;;;2.78;;
29662;SDS011;16578;53.266;7.920;2023-09-19T11:04:22;9.93;;;2.92;;
29662;SDS011;16578;53.266;7.920;2023-09-19T11:07:02;8.63;;;2.90;;
29662;SDS011;16578;53.266;7.920;2023-09-19T11:09:51;6.90;;;2.90;;
29662;SDS011;16578;53.266;7.920;2023-09-19T11:15:06;8.82;;;2.90;;
29662;SDS011;16578;53.266;7.920;2023-09-19T11:17:37;10.48;;;3.63;;
29662;SDS011;16578;53.266;7.920;2023-09-19T11:30:42;13.05;;;3.30;;
29662;SDS011;16578;53.266;7.920;2023-09-19T11:33:18;9.52;;;2.83;;
29662;SDS011;16578;53.266;7.920;2023-09-19T11:36:06;10.45;;;3.28;;
29662;SDS011;16578;53.266;7.920;2023-09-19T11:43:50;10.85;;;3.22;;
29662;SDS011;16578;53.266;7.920;2023-09-19T11:46:17;6.85;;;2.83;;
29662;SDS011;16578;53.266;7.920;2023-09-19T11:48:47;5.78;;;2.60;;
29662;SDS011;16578;53.266;7.920;2023-09-19T11:51:14;6.65;;;3.40;;
29662;SDS011;16578;53.266;7.920;2023-09-19T11:53:53;9.32;;;3.10;;
29662;SDS011;16578;53.266;7.920;2023-09-19T11:56:21;6.60;;;2.77;;
29662;SDS011;16578;53.266;7.920;2023-09-19T12:01:22;8.82;;;2.97;;
29662;SDS011;16578;53.266;7.920;2023-09-19T12:03:54;7.65;;;2.55;;
29662;SDS011;16578;53.266;7.920;2023-09-19T12:06:22;6.70;;;3.05;;
29662;SDS011;16578;53.266;7.920;2023-09-19T12:08:49;8.88;;;3.00;;
29662;SDS011;16578;53.266;7.920;2023-09-19T12:11:16;9.15;;;3.33;;
29662;SDS011;16578;53.266;7.920;2023-09-19T12:13:46;8.40;;;3.20;;
29662;SDS011;16578;53.266;7.920;2023-09-19T12:16:17;10.50;;;3.10;;
29662;SDS011;16578;53.266;7.920;2023-09-19T12:18:46;9.48;;;3.05;;
29662;SDS011;16578;53.266;7.920;2023-09-19T12:21:33;10.52;;;3.15;;
29662;SDS011;16578;53.266;7.920;2023-09-19T12:26:41;6.85;;;3.00;;
29662;SDS011;16578;53.266;7.920;2023-09-19T12:29:12;8.75;;;2.88;;
29662;SDS011;16578;53.266;7.920;2023-09-19T12:31:54;6.65;;;3.00;;
29662;SDS011;16578;53.266;7.920;2023-09-19T12:34:28;8.07;;;2.78;;
29662;SDS011;16578;53.266;7.920;2023-09-19T12:37:12;8.00;;;2.72;;
29662;SDS011;16578;53.266;7.920;2023-09-19T12:39:52;7.50;;;2.53;;
29662;SDS011;16578;53.266;7.920;2023-09-19T12:42:24;10.20;;;3.15;;
29662;SDS011;16578;53.266;7.920;2023-09-19T12:44:56;9.70;;;3.00;;
29662;SDS011;16578;53.266;7.920;2023-09-19T12:47:25;10.60;;;2.97;;
29662;SDS011;16578;53.266;7.920;2023-09-19T12:52:38;7.65;;;2.85;;
29662;SDS011;16578;53.266;7.920;2023-09-19T12:55:05;9.77;;;3.00;;
29662;SDS011;16578;53.266;7.920;2023-09-19T12:57:32;6.32;;;2.88;;
29662;SDS011;16578;53.266;7.920;2023-09-19T13:00:03;8.10;;;2.85;;
29662;SDS011;16578;53.266;7.920;2023-09-19T13:02:36;5.53;;;2.67;;
29662;SDS011;16578;53.266;7.920;2023-09-19T13:05:02;9.50;;;2.85;;
29662;SDS011;16578;53.266;7.920;2023-09-19T13:07:44;4.78;;;2.25;;
29662;SDS011;16578;53.266;7.920;2023-09-19T13:10:12;6.07;;;2.42;;
29662;SDS011;16578;53.266;7.920;2023-09-19T13:12:40;7.35;;;2.92;;
29662;SDS011;16578;53.266;7.920;2023-09-19T13:15:09;5.72;;;2.30;;
29662;SDS011;16578;53.266;7.920;2023-09-19T13:17:43;4.97;;;2.55;;
29662;SDS011;16578;53.266;7.920;2023-09-19T13:20:31;8.25;;;2.50;;
29662;SDS011;16578;53.266;7.920;2023-09-19T13:22:57;7.63;;;2.75;;
29662;SDS011;16578;53.266;7.920;2023-09-19T13:25:25;7.75;;;2.33;;
29662;SDS011;16578;53.266;7.920;2023-09-19T13:27:53;6.70;;;2.67;;
29662;SDS011;16578;53.266;7.920;2023-09-19T13:30:21;8.50;;;2.33;;
29662;SDS011;16578;53.266;7.920;2023-09-19T13:32:51;10.25;;;2.53;;
29662;SDS011;16578;53.266;7.920;2023-09-19T13:35:31;7.35;;;2.50;;
29662;SDS011;16578;53.266;7.920;2023-09-19T13:37:57;7.60;;;2.42;;
29662;SDS011;16578;53.266;7.920;2023-09-19T13:40:23;6.45;;;2.58;;
29662;SDS011;16578;53.266;7.920;2023-09-19T13:42:52;7.03;;;2.50;;
29662;SDS011;16578;53.266;7.920;2023-09-19T13:45:18;9.82;;;2.97;;
29662;SDS011;16578;53.266;7.920;2023-09-19T13:50:12;3.80;;;2.20;;
29662;SDS011;16578;53.266;7.920;2023-09-19T13:52:38;5.28;;;2.30;;
29662;SDS011;16578;53.266;7.920;2023-09-19T13:55:04;6.50;;;2.50;;
29662;SDS011;16578;53.266;7.920;2023-09-19T13:57:31;4.65;;;2.20;;
29662;SDS011;16578;53.266;7.920;2023-09-19T13:59:58;5.53;;;2.10;;
29662;SDS011;16578;53.266;7.920;2023-09-19T14:02:24;5.35;;;2.35;;
29662;SDS011;16578;53.266;7.920;2023-09-19T14:04:50;5.40;;;2.15;;
29662;SDS011;16578;53.266;7.920;2023-09-19T14:07:19;8.07;;;2.40;;
29662;SDS011;16578;53.266;7.920;2023-09-19T14:09:45;10.73;;;2.70;;
29662;SDS011;16578;53.266;7.920;2023-09-19T14:12:11;8.60;;;3.28;;
29662;SDS011;16578;53.266;7.920;2023-09-19T14:14:37;8.85;;;2.72;;
29662;SDS011;16578;53.266;7.920;2023-09-19T14:17:05;8.57;;;2.88;;
29662;SDS011;16578;53.266;7.920;2023-09-19T14:19:32;7.38;;;2.25;;
29662;SDS011;16578;53.266;7.920;2023-09-19T14:21:58;8.13;;;2.47;;
29662;SDS011;16578;53.266;7.920;2023-09-19T14:24:24;5.45;;;2.40;;
29662;SDS011;16578;53.266;7.920;2023-09-19T14:26:49;7.00;;;2.45;;
29662;SDS011;16578;53.266;7.920;2023-09-19T14:29:15;6.45;;;2.15;;
29662;SDS011;16578;53.266;7.920;2023-09-19T14:31:41;7.43;;;2.28;;
29662;SDS011;16578;53.266;7.920;2023-09-19T14:34:07;5.75;;;2.30;;
29662;SDS011;16578;53.266;7.920;2023-09-19T14:36:35;9.15;;;2.67;;
29662;SDS011;16578;53.266;7.920;2023-09-19T14:39:01;4.05;;;1.98;;
29662;SDS011;16578;53.266;7.920;2023-09-19T14:41:27;6.25;;;2.55;;
29662;SDS011;16578;53.266;7.920;2023-09-19T14:43:53;9.32;;;3.20;;
29662;SDS011;16578;53.266;7.920;2023-09-19T14:46:20;6.45;;;2.30;;
29662;SDS011;16578;53.266;7.920;2023-09-19T14:48:45;4.82;;;2.20;;
29662;SDS011;16578;53.266;7.920;2023-09-19T14:51:12;8.13;;;2.53;;
29662;SDS011;16578;53.266;7.920;2023-09-19T14:53:38;7.25;;;2.20;;
29662;SDS011;16578;53.266;7.920;2023-09-19T14:56:08;9.65;;;2.63;;
29662;SDS011;16578;53.266;7.920;2023-09-19T14:58:34;4.72;;;2.10;;
29662;SDS011;16578;53.266;7.920;2023-09-19T15:01:07;6.07;;;2.22;;
29662;SDS011;16578;53.266;7.920;2023-09-19T15:03:37;4.68;;;2.10;;
29662;SDS011;16578;53.266;7.920;2023-09-19T15:06:05;7.35;;;2.45;;
29662;SDS011;16578;53.266;7.920;2023-09-19T15:08:38;5.85;;;2.28;;
29662;SDS011;16578;53.266;7.920;2023-09-19T15:11:04;4.43;;;1.83;;
29662;SDS011;16578;53.266;7.920;2023-09-19T15:13:31;7.35;;;1.98;;
29662;SDS011;16578;53.266;7.920;2023-09-19T15:18:27;4.40;;;1.67;;
29662;SDS011;16578;53.266;7.920;2023-09-19T15:20:54;8.52;;;2.60;;
29662;SDS011;16578;53.266;7.920;2023-09-19T15:23:20;4.32;;;1.98;;
29662;SDS011;16578;53.266;7.920;2023-09-19T15:25:49;5.75;;;2.22;;
29662;SDS011;16578;53.266;7.920;2023-09-19T15:28:15;9.38;;;2.40;;
29662;SDS011;16578;53.266;7.920;2023-09-19T15:30:41;6.18;;;1.90;;
29662;SDS011;16578;53.266;7.920;2023-09-19T15:33:06;7.38;;;1.92;;
29662;SDS011;16578;53.266;7.920;2023-09-19T15:35:32;7.05;;;2.28;;
29662;SDS011;16578;53.266;7.920;2023-09-19T15:37:58;6.28;;;1.95;;
29662;SDS011;16578;53.266;7.920;2023-09-19T15:40:26;6.97;;;2.15;;
29662;SDS011;16578;53.266;7.920;2023-09-19T15:42:52;6.40;;;2.28;;
29662;SDS011;16578;53.266;7.920;2023-09-19T15:45:19;5.22;;;1.73;;
29662;SDS011;16578;53.266;7.920;2023-09-19T15:47:45;6.07;;;2.35;;
29662;SDS011;16578;53.266;7.920;2023-09-19T15:50:10;8.10;;;1.95;;
29662;SDS011;16578;53.266;7.920;2023-09-19T15:52:39;6.35;;;2.28;;
29662;SDS011;16578;53.266;7.920;2023-09-19T15:55:05;4.63;;;1.92;;
29662;SDS011;16578;53.266;7.920;2023-09-19T15:57:38;7.25;;;2.28;;